sensor_id;sensor_type;location;lat;lon;timestamp;P1;durP1;ratioP1;P2;durP2;ratioP2
5612;SDS011;63463;53.586;9.928;2022-09-17T00:01:02;27.67;;;5.07;;
5612;SDS011;63463;53.586;9.928;2022-09-17T00:03:28;32.10;;;5.90;;
5612;SDS011;63463;53.586;9.928;2022-09-17T00:06:01;24.30;;;5.03;;
5612;SDS011;63463;53.586;9.928;2022-09-17T00:08:28;13.57;;;4.50;;
5612;SDS011;63463;53.586;9.928;2022-09-17T00:10:54;16.40;;;4.97;;
5612;SDS011;63463;53.586;9.928;2022-09-17T00:13:20;12.30;;;4.23;;
5612;SDS011;63463;53.586;9.928;2022-09-17T00:15:46;32.90;;;5.80;;
5612;SDS011;63463;53.586;9.928;2022-09-17T00:18:13;23.03;;;5.10;;
5612;SDS011;63463;53.586;9.928;2022-09-17T00:20:40;23.83;;;5.00;;
5612;SDS011;63463;53.586;9.928;2022-09-17T00:23:06;28.27;;;5.10;;
5612;SDS011;63463;53.586;9.928;2022-09-17T00:25:32;21.63;;;5.00;;
5612;SDS011;63463;53.586;9.928;2022-09-17T00:27:58;23.27;;;4.40;;
5612;SDS011;63463;53.586;9.928;2022-09-17T00:30:24;22.63;;;4.70;;
5612;SDS011;63463;53.586;9.928;2022-09-17T00:32:50;16.23;;;4.67;;
5612;SDS011;63463;53.586;9.928;2022-09-17T00:35:17;22.60;;;4.47;;
5612;SDS011;63463;53.586;9.928;2022-09-17T00:37:43;23.57;;;4.73;;
5612;SDS011;63463;53.586;9.928;2022-09-17T00:40:09;25.43;;;4.60;;
5612;SDS011;63463;53.586;9.928;2022-09-17T00:42:35;17.67;;;5.03;;
5612;SDS011;63463;53.586;9.928;2022-09-17T00:45:01;27.37;;;5.20;;
5612;SDS011;63463;53.586;9.928;2022-09-17T00:47:29;30.37;;;5.40;;
5612;SDS011;63463;53.586;9.928;2022-09-17T00:49:57;18.70;;;4.30;;
5612;SDS011;63463;53.586;9.928;2022-09-17T00:52:27;17.43;;;4.60;;
5612;SDS011;63463;53.586;9.928;2022-09-17T00:54:56;26.57;;;5.30;;
5612;SDS011;63463;53.586;9.928;2022-09-17T00:57:23;28.37;;;4.50;;
5612;SDS011;63463;53.586;9.928;2022-09-17T00:59:49;19.30;;;4.47;;
5612;SDS011;63463;53.586;9.928;2022-09-17T01:02:15;22.90;;;4.67;;
5612;SDS011;63463;53.586;9.928;2022-09-17T01:04:41;12.97;;;4.70;;
5612;SDS011;63463;53.586;9.928;2022-09-17T01:09:41;23.90;;;4.20;;
5612;SDS011;63463;53.586;9.928;2022-09-17T01:19:41;17.33;;;4.17;;
5612;SDS011;63463;53.586;9.928;2022-09-17T01:22:33;28.13;;;5.03;;
5612;SDS011;63463;53.586;9.928;2022-09-17T01:30:14;23.00;;;4.37;;
5612;SDS011;63463;53.586;9.928;2022-09-17T01:37:52;18.57;;;4.27;;
5612;SDS011;63463;53.586;9.928;2022-09-17T01:40:35;23.07;;;4.10;;
5612;SDS011;63463;53.586;9.928;2022-09-17T01:43:18;30.33;;;4.50;;
5612;SDS011;63463;53.586;9.928;2022-09-17T01:45:50;19.53;;;4.67;;
5612;SDS011;63463;53.586;9.928;2022-09-17T01:48:17;24.63;;;4.30;;
5612;SDS011;63463;53.586;9.928;2022-09-17T01:50:49;14.17;;;4.00;;
5612;SDS011;63463;53.586;9.928;2022-09-17T01:53:16;13.30;;;4.37;;
5612;SDS011;63463;53.586;9.928;2022-09-17T01:55:43;14.13;;;4.43;;
5612;SDS011;63463;53.586;9.928;2022-09-17T01:58:12;6.50;;;3.50;;
5612;SDS011;63463;53.586;9.928;2022-09-17T02:00:39;17.97;;;4.20;;
5612;SDS011;63463;53.586;9.928;2022-09-17T02:05:42;32.20;;;4.70;;
5612;SDS011;63463;53.586;9.928;2022-09-17T02:08:22;13.37;;;3.90;;
5612;SDS011;63463;53.586;9.928;2022-09-17T02:10:51;19.20;;;4.57;;
5612;SDS011;63463;53.586;9.928;2022-09-17T02:13:31;24.77;;;4.80;;
5612;SDS011;63463;53.586;9.928;2022-09-17T02:16:01;24.20;;;4.90;;
5612;SDS011;63463;53.586;9.928;2022-09-17T02:18:35;15.43;;;4.27;;
5612;SDS011;63463;53.586;9.928;2022-09-17T02:21:05;17.67;;;4.40;;
5612;SDS011;63463;53.586;9.928;2022-09-17T02:23:33;14.60;;;4.27;;
5612;SDS011;63463;53.586;9.928;2022-09-17T02:26:05;14.83;;;4.20;;
5612;SDS011;63463;53.586;9.928;2022-09-17T02:28:42;12.53;;;4.33;;
5612;SDS011;63463;53.586;9.928;2022-09-17T02:31:08;26.87;;;4.70;;
5612;SDS011;63463;53.586;9.928;2022-09-17T02:33:35;22.97;;;6.20;;
5612;SDS011;63463;53.586;9.928;2022-09-17T02:36:02;14.03;;;3.33;;
5612;SDS011;63463;53.586;9.928;2022-09-17T02:38:29;20.87;;;4.80;;
5612;SDS011;63463;53.586;9.928;2022-09-17T02:41:00;8.23;;;3.90;;
5612;SDS011;63463;53.586;9.928;2022-09-17T02:51:09;13.10;;;3.93;;
5612;SDS011;63463;53.586;9.928;2022-09-17T02:58:37;13.27;;;4.10;;
5612;SDS011;63463;53.586;9.928;2022-09-17T03:01:13;23.40;;;4.10;;
5612;SDS011;63463;53.586;9.928;2022-09-17T03:03:42;19.00;;;3.97;;
5612;SDS011;63463;53.586;9.928;2022-09-17T03:06:08;16.93;;;4.10;;
5612;SDS011;63463;53.586;9.928;2022-09-17T03:08:35;15.67;;;3.90;;
5612;SDS011;63463;53.586;9.928;2022-09-17T03:11:03;17.80;;;4.60;;
5612;SDS011;63463;53.586;9.928;2022-09-17T03:13:30;14.33;;;4.10;;
5612;SDS011;63463;53.586;9.928;2022-09-17T03:15:56;9.90;;;3.87;;
5612;SDS011;63463;53.586;9.928;2022-09-17T03:18:22;12.87;;;4.37;;
5612;SDS011;63463;53.586;9.928;2022-09-17T03:20:48;14.83;;;4.03;;
5612;SDS011;63463;53.586;9.928;2022-09-17T03:23:14;20.20;;;4.27;;
5612;SDS011;63463;53.586;9.928;2022-09-17T03:25:40;16.63;;;4.80;;
5612;SDS011;63463;53.586;9.928;2022-09-17T03:28:06;13.00;;;4.67;;
5612;SDS011;63463;53.586;9.928;2022-09-17T03:30:32;9.03;;;3.80;;
5612;SDS011;63463;53.586;9.928;2022-09-17T03:32:58;29.90;;;4.20;;
5612;SDS011;63463;53.586;9.928;2022-09-17T03:35:24;15.37;;;4.27;;
5612;SDS011;63463;53.586;9.928;2022-09-17T03:37:50;22.67;;;4.70;;
5612;SDS011;63463;53.586;9.928;2022-09-17T03:40:16;11.43;;;3.63;;
5612;SDS011;63463;53.586;9.928;2022-09-17T03:42:43;15.87;;;4.10;;
5612;SDS011;63463;53.586;9.928;2022-09-17T03:45:09;16.13;;;4.17;;
5612;SDS011;63463;53.586;9.928;2022-09-17T03:47:36;14.07;;;4.87;;
5612;SDS011;63463;53.586;9.928;2022-09-17T03:50:02;12.37;;;4.53;;
5612;SDS011;63463;53.586;9.928;2022-09-17T03:52:28;10.13;;;3.80;;
5612;SDS011;63463;53.586;9.928;2022-09-17T03:54:54;16.23;;;4.33;;
5612;SDS011;63463;53.586;9.928;2022-09-17T03:57:20;13.23;;;4.30;;
5612;SDS011;63463;53.586;9.928;2022-09-17T03:59:47;18.90;;;4.20;;
5612;SDS011;63463;53.586;9.928;2022-09-17T04:02:12;16.10;;;4.00;;
5612;SDS011;63463;53.586;9.928;2022-09-17T04:04:38;12.73;;;4.30;;
5612;SDS011;63463;53.586;9.928;2022-09-17T04:07:05;11.53;;;4.80;;
5612;SDS011;63463;53.586;9.928;2022-09-17T04:09:31;12.80;;;4.00;;
5612;SDS011;63463;53.586;9.928;2022-09-17T04:11:57;8.73;;;3.60;;
5612;SDS011;63463;53.586;9.928;2022-09-17T04:14:23;7.90;;;3.33;;
5612;SDS011;63463;53.586;9.928;2022-09-17T04:16:49;14.73;;;3.57;;
5612;SDS011;63463;53.586;9.928;2022-09-17T04:19:15;15.03;;;4.10;;
5612;SDS011;63463;53.586;9.928;2022-09-17T04:21:41;14.33;;;4.63;;
5612;SDS011;63463;53.586;9.928;2022-09-17T04:24:07;16.30;;;4.33;;
5612;SDS011;63463;53.586;9.928;2022-09-17T04:26:33;12.07;;;4.27;;
5612;SDS011;63463;53.586;9.928;2022-09-17T04:28:59;15.20;;;4.23;;
5612;SDS011;63463;53.586;9.928;2022-09-17T04:31:25;28.13;;;5.10;;
5612;SDS011;63463;53.586;9.928;2022-09-17T04:33:51;14.27;;;4.20;;
5612;SDS011;63463;53.586;9.928;2022-09-17T04:36:17;8.70;;;3.90;;
5612;SDS011;63463;53.586;9.928;2022-09-17T04:38:43;19.83;;;4.10;;
5612;SDS011;63463;53.586;9.928;2022-09-17T04:41:12;16.93;;;4.90;;
5612;SDS011;63463;53.586;9.928;2022-09-17T04:43:38;7.50;;;3.40;;
5612;SDS011;63463;53.586;9.928;2022-09-17T04:46:04;4.23;;;3.60;;
5612;SDS011;63463;53.586;9.928;2022-09-17T04:48:30;15.40;;;4.10;;
5612;SDS011;63463;53.586;9.928;2022-09-17T04:50:55;20.50;;;4.63;;
5612;SDS011;63463;53.586;9.928;2022-09-17T04:53:22;12.77;;;4.03;;
5612;SDS011;63463;53.586;9.928;2022-09-17T04:55:48;9.13;;;3.70;;
5612;SDS011;63463;53.586;9.928;2022-09-17T04:58:14;11.27;;;3.70;;
5612;SDS011;63463;53.586;9.928;2022-09-17T05:00:40;9.23;;;4.00;;
5612;SDS011;63463;53.586;9.928;2022-09-17T05:03:06;12.10;;;4.23;;
5612;SDS011;63463;53.586;9.928;2022-09-17T05:05:32;11.43;;;3.83;;
5612;SDS011;63463;53.586;9.928;2022-09-17T05:07:58;12.83;;;3.73;;
5612;SDS011;63463;53.586;9.928;2022-09-17T05:10:25;12.20;;;4.07;;
5612;SDS011;63463;53.586;9.928;2022-09-17T05:12:52;14.13;;;3.83;;
5612;SDS011;63463;53.586;9.928;2022-09-17T05:15:19;16.87;;;4.50;;
5612;SDS011;63463;53.586;9.928;2022-09-17T05:17:45;10.90;;;4.83;;
5612;SDS011;63463;53.586;9.928;2022-09-17T05:20:11;11.80;;;3.90;;
5612;SDS011;63463;53.586;9.928;2022-09-17T05:22:45;8.00;;;3.70;;
5612;SDS011;63463;53.586;9.928;2022-09-17T05:25:11;15.20;;;4.33;;
5612;SDS011;63463;53.586;9.928;2022-09-17T05:27:38;12.87;;;4.13;;
5612;SDS011;63463;53.586;9.928;2022-09-17T05:30:04;6.90;;;4.03;;
5612;SDS011;63463;53.586;9.928;2022-09-17T05:32:30;10.43;;;3.77;;
5612;SDS011;63463;53.586;9.928;2022-09-17T05:34:56;13.30;;;4.03;;
5612;SDS011;63463;53.586;9.928;2022-09-17T05:37:22;16.77;;;4.37;;
5612;SDS011;63463;53.586;9.928;2022-09-17T05:39:48;18.70;;;3.60;;
5612;SDS011;63463;53.586;9.928;2022-09-17T05:42:14;17.80;;;4.40;;
5612;SDS011;63463;53.586;9.928;2022-09-17T05:44:40;6.10;;;4.17;;
5612;SDS011;63463;53.586;9.928;2022-09-17T05:47:06;18.43;;;4.77;;
5612;SDS011;63463;53.586;9.928;2022-09-17T05:49:32;25.10;;;4.20;;
5612;SDS011;63463;53.586;9.928;2022-09-17T05:51:58;13.63;;;3.93;;
5612;SDS011;63463;53.586;9.928;2022-09-17T05:54:23;10.40;;;4.40;;
5612;SDS011;63463;53.586;9.928;2022-09-17T05:56:53;15.83;;;4.37;;
5612;SDS011;63463;53.586;9.928;2022-09-17T05:59:19;10.23;;;4.07;;
5612;SDS011;63463;53.586;9.928;2022-09-17T06:01:45;10.43;;;3.97;;
5612;SDS011;63463;53.586;9.928;2022-09-17T06:04:11;23.43;;;4.87;;
5612;SDS011;63463;53.586;9.928;2022-09-17T06:06:37;12.20;;;3.70;;
5612;SDS011;63463;53.586;9.928;2022-09-17T06:09:06;14.67;;;5.13;;
5612;SDS011;63463;53.586;9.928;2022-09-17T06:11:33;21.53;;;4.70;;
5612;SDS011;63463;53.586;9.928;2022-09-17T06:13:59;9.00;;;3.90;;
5612;SDS011;63463;53.586;9.928;2022-09-17T06:16:25;14.67;;;4.10;;
5612;SDS011;63463;53.586;9.928;2022-09-17T06:18:51;11.57;;;4.13;;
5612;SDS011;63463;53.586;9.928;2022-09-17T06:21:17;20.43;;;4.33;;
5612;SDS011;63463;53.586;9.928;2022-09-17T06:23:45;14.20;;;4.63;;
5612;SDS011;63463;53.586;9.928;2022-09-17T06:26:12;21.37;;;3.93;;
5612;SDS011;63463;53.586;9.928;2022-09-17T06:28:38;12.10;;;4.00;;
5612;SDS011;63463;53.586;9.928;2022-09-17T06:31:05;9.70;;;4.00;;
5612;SDS011;63463;53.586;9.928;2022-09-17T06:33:31;9.70;;;3.93;;
5612;SDS011;63463;53.586;9.928;2022-09-17T06:36:02;11.77;;;4.00;;
5612;SDS011;63463;53.586;9.928;2022-09-17T06:38:29;9.47;;;3.70;;
5612;SDS011;63463;53.586;9.928;2022-09-17T06:40:55;11.73;;;4.00;;
5612;SDS011;63463;53.586;9.928;2022-09-17T06:43:21;14.93;;;3.90;;
5612;SDS011;63463;53.586;9.928;2022-09-17T06:45:51;8.23;;;4.10;;
5612;SDS011;63463;53.586;9.928;2022-09-17T06:48:17;9.20;;;4.40;;
5612;SDS011;63463;53.586;9.928;2022-09-17T06:50:43;5.07;;;3.60;;
5612;SDS011;63463;53.586;9.928;2022-09-17T06:53:09;11.30;;;3.87;;
5612;SDS011;63463;53.586;9.928;2022-09-17T06:55:35;14.17;;;4.47;;
5612;SDS011;63463;53.586;9.928;2022-09-17T06:58:01;4.20;;;3.17;;
5612;SDS011;63463;53.586;9.928;2022-09-17T07:00:27;4.70;;;3.33;;
5612;SDS011;63463;53.586;9.928;2022-09-17T07:02:54;11.30;;;4.13;;
5612;SDS011;63463;53.586;9.928;2022-09-17T07:05:21;10.00;;;3.67;;
5612;SDS011;63463;53.586;9.928;2022-09-17T07:07:47;7.23;;;3.67;;
5612;SDS011;63463;53.586;9.928;2022-09-17T07:10:13;7.23;;;4.40;;
5612;SDS011;63463;53.586;9.928;2022-09-17T07:12:39;5.33;;;3.53;;
5612;SDS011;63463;53.586;9.928;2022-09-17T07:15:06;3.50;;;3.30;;
5612;SDS011;63463;53.586;9.928;2022-09-17T07:17:32;9.83;;;3.43;;
5612;SDS011;63463;53.586;9.928;2022-09-17T07:19:58;9.90;;;3.77;;
5612;SDS011;63463;53.586;9.928;2022-09-17T07:22:25;7.47;;;3.30;;
5612;SDS011;63463;53.586;9.928;2022-09-17T07:24:52;4.23;;;3.10;;
5612;SDS011;63463;53.586;9.928;2022-09-17T07:27:18;8.23;;;3.40;;
5612;SDS011;63463;53.586;9.928;2022-09-17T07:29:45;3.73;;;3.40;;
5612;SDS011;63463;53.586;9.928;2022-09-17T07:32:12;10.00;;;3.30;;
5612;SDS011;63463;53.586;9.928;2022-09-17T07:34:38;4.80;;;3.37;;
5612;SDS011;63463;53.586;9.928;2022-09-17T07:37:04;8.00;;;3.80;;
5612;SDS011;63463;53.586;9.928;2022-09-17T07:39:30;10.60;;;3.60;;
5612;SDS011;63463;53.586;9.928;2022-09-17T07:41:56;12.53;;;3.83;;
5612;SDS011;63463;53.586;9.928;2022-09-17T07:44:22;6.40;;;3.60;;
5612;SDS011;63463;53.586;9.928;2022-09-17T07:46:48;5.90;;;3.90;;
5612;SDS011;63463;53.586;9.928;2022-09-17T07:49:15;6.10;;;3.40;;
5612;SDS011;63463;53.586;9.928;2022-09-17T07:51:40;15.70;;;3.43;;
5612;SDS011;63463;53.586;9.928;2022-09-17T07:54:06;5.07;;;3.53;;
5612;SDS011;63463;53.586;9.928;2022-09-17T07:56:32;3.40;;;3.00;;
5612;SDS011;63463;53.586;9.928;2022-09-17T07:58:58;7.10;;;3.73;;
5612;SDS011;63463;53.586;9.928;2022-09-17T08:01:24;12.93;;;3.50;;
5612;SDS011;63463;53.586;9.928;2022-09-17T08:03:51;3.47;;;3.13;;
5612;SDS011;63463;53.586;9.928;2022-09-17T08:06:19;6.40;;;3.60;;
5612;SDS011;63463;53.586;9.928;2022-09-17T08:08:45;16.27;;;3.90;;
5612;SDS011;63463;53.586;9.928;2022-09-17T08:11:12;12.87;;;3.73;;
5612;SDS011;63463;53.586;9.928;2022-09-17T08:13:39;15.67;;;3.60;;
5612;SDS011;63463;53.586;9.928;2022-09-17T08:16:08;7.03;;;3.50;;
5612;SDS011;63463;53.586;9.928;2022-09-17T08:18:34;3.87;;;3.10;;
5612;SDS011;63463;53.586;9.928;2022-09-17T08:21:01;7.73;;;3.03;;
5612;SDS011;63463;53.586;9.928;2022-09-17T08:23:28;11.60;;;3.80;;
5612;SDS011;63463;53.586;9.928;2022-09-17T08:25:54;6.00;;;3.40;;
5612;SDS011;63463;53.586;9.928;2022-09-17T08:28:21;7.03;;;3.93;;
5612;SDS011;63463;53.586;9.928;2022-09-17T08:30:47;10.30;;;3.40;;
5612;SDS011;63463;53.586;9.928;2022-09-17T08:33:14;3.50;;;3.00;;
5612;SDS011;63463;53.586;9.928;2022-09-17T08:35:49;7.33;;;3.23;;
5612;SDS011;63463;53.586;9.928;2022-09-17T08:38:16;8.93;;;3.20;;
5612;SDS011;63463;53.586;9.928;2022-09-17T08:40:44;10.97;;;3.63;;
5612;SDS011;63463;53.586;9.928;2022-09-17T08:43:16;7.90;;;3.77;;
5612;SDS011;63463;53.586;9.928;2022-09-17T08:45:43;4.37;;;2.83;;
5612;SDS011;63463;53.586;9.928;2022-09-17T08:48:09;4.83;;;2.83;;
5612;SDS011;63463;53.586;9.928;2022-09-17T08:50:38;13.40;;;3.37;;
5612;SDS011;63463;53.586;9.928;2022-09-17T08:53:17;9.93;;;3.10;;
5612;SDS011;63463;53.586;9.928;2022-09-17T08:55:54;9.70;;;3.80;;
5612;SDS011;63463;53.586;9.928;2022-09-17T09:00:57;6.50;;;3.50;;
5612;SDS011;63463;53.586;9.928;2022-09-17T09:03:30;5.43;;;3.07;;
5612;SDS011;63463;53.586;9.928;2022-09-17T09:05:56;10.50;;;2.70;;
5612;SDS011;63463;53.586;9.928;2022-09-17T09:10:52;4.10;;;2.57;;
5612;SDS011;63463;53.586;9.928;2022-09-17T09:13:20;7.10;;;2.80;;
5612;SDS011;63463;53.586;9.928;2022-09-17T09:15:50;3.23;;;2.63;;
5612;SDS011;63463;53.586;9.928;2022-09-17T09:18:19;2.70;;;2.50;;
5612;SDS011;63463;53.586;9.928;2022-09-17T09:20:52;2.70;;;2.40;;
5612;SDS011;63463;53.586;9.928;2022-09-17T09:23:28;3.53;;;2.63;;
5612;SDS011;63463;53.586;9.928;2022-09-17T09:28:41;7.50;;;2.77;;
5612;SDS011;63463;53.586;9.928;2022-09-17T09:33:38;2.83;;;2.63;;
5612;SDS011;63463;53.586;9.928;2022-09-17T09:36:06;5.17;;;2.87;;
5612;SDS011;63463;53.586;9.928;2022-09-17T09:38:37;4.73;;;2.63;;
5612;SDS011;63463;53.586;9.928;2022-09-17T09:41:09;3.00;;;2.80;;
5612;SDS011;63463;53.586;9.928;2022-09-17T09:43:43;4.87;;;3.53;;
5612;SDS011;63463;53.586;9.928;2022-09-17T09:51:27;2.57;;;2.40;;
5612;SDS011;63463;53.586;9.928;2022-09-17T09:54:06;2.33;;;2.23;;
5612;SDS011;63463;53.586;9.928;2022-09-17T09:56:46;2.50;;;2.40;;
5612;SDS011;63463;53.586;9.928;2022-09-17T09:59:14;2.83;;;2.10;;
5612;SDS011;63463;53.586;9.928;2022-09-17T10:01:40;4.73;;;2.40;;
5612;SDS011;63463;53.586;9.928;2022-09-17T10:04:25;2.60;;;2.50;;
5612;SDS011;63463;53.586;9.928;2022-09-17T10:07:13;3.67;;;2.97;;
5612;SDS011;63463;53.586;9.928;2022-09-17T10:09:38;3.00;;;2.70;;
5612;SDS011;63463;53.586;9.928;2022-09-17T10:14:35;3.13;;;2.80;;
5612;SDS011;63463;53.586;9.928;2022-09-17T10:19:35;2.53;;;2.43;;
5612;SDS011;63463;53.586;9.928;2022-09-17T10:22:10;2.60;;;2.40;;
5612;SDS011;63463;53.586;9.928;2022-09-17T10:24:43;2.87;;;2.60;;
5612;SDS011;63463;53.586;9.928;2022-09-17T10:27:13;6.70;;;2.80;;
5612;SDS011;63463;53.586;9.928;2022-09-17T10:29:45;2.87;;;2.60;;
5612;SDS011;63463;53.586;9.928;2022-09-17T10:32:15;5.90;;;2.93;;
5612;SDS011;63463;53.586;9.928;2022-09-17T10:34:42;2.80;;;2.60;;
5612;SDS011;63463;53.586;9.928;2022-09-17T10:37:35;2.93;;;2.83;;
5612;SDS011;63463;53.586;9.928;2022-09-17T10:40:25;2.73;;;2.53;;
5612;SDS011;63463;53.586;9.928;2022-09-17T10:45:42;2.70;;;2.50;;
5612;SDS011;63463;53.586;9.928;2022-09-17T10:48:15;5.03;;;2.70;;
5612;SDS011;63463;53.586;9.928;2022-09-17T10:50:46;2.53;;;2.40;;
5612;SDS011;63463;53.586;9.928;2022-09-17T10:53:16;2.60;;;2.40;;
5612;SDS011;63463;53.586;9.928;2022-09-17T10:58:34;6.53;;;2.60;;
5612;SDS011;63463;53.586;9.928;2022-09-17T11:01:29;2.50;;;2.40;;
5612;SDS011;63463;53.586;9.928;2022-09-17T11:03:48;7.93;;;3.40;;
5612;SDS011;63463;53.586;9.928;2022-09-17T11:09:11;4.60;;;2.80;;
5612;SDS011;63463;53.586;9.928;2022-09-17T11:16:48;4.73;;;3.50;;
5612;SDS011;63463;53.586;9.928;2022-09-17T11:21:49;5.93;;;3.10;;
5612;SDS011;63463;53.586;9.928;2022-09-17T11:35:08;4.03;;;2.70;;
5612;SDS011;63463;53.586;9.928;2022-09-17T11:37:39;7.70;;;3.60;;
5612;SDS011;63463;53.586;9.928;2022-09-17T11:42:38;5.30;;;2.57;;
5612;SDS011;63463;53.586;9.928;2022-09-17T11:45:14;3.20;;;2.30;;
5612;SDS011;63463;53.586;9.928;2022-09-17T11:47:50;3.10;;;2.80;;
5612;SDS011;63463;53.586;9.928;2022-09-17T11:51:02;5.63;;;2.40;;
5612;SDS011;63463;53.586;9.928;2022-09-17T11:55:49;3.00;;;2.80;;
5612;SDS011;63463;53.586;9.928;2022-09-17T12:01:08;3.73;;;2.83;;
5612;SDS011;63463;53.586;9.928;2022-09-17T12:03:36;7.37;;;2.93;;
5612;SDS011;63463;53.586;9.928;2022-09-17T12:06:10;7.50;;;3.63;;
5612;SDS011;63463;53.586;9.928;2022-09-17T12:08:44;4.20;;;2.57;;
5612;SDS011;63463;53.586;9.928;2022-09-17T12:11:18;3.07;;;2.80;;
5612;SDS011;63463;53.586;9.928;2022-09-17T12:13:45;5.23;;;2.83;;
5612;SDS011;63463;53.586;9.928;2022-09-17T12:16:26;3.27;;;2.33;;
5612;SDS011;63463;53.586;9.928;2022-09-17T12:21:36;3.97;;;3.10;;
5612;SDS011;63463;53.586;9.928;2022-09-17T12:24:10;4.70;;;3.60;;
5612;SDS011;63463;53.586;9.928;2022-09-17T12:31:48;3.03;;;2.83;;
5612;SDS011;63463;53.586;9.928;2022-09-17T12:37:03;5.80;;;3.40;;
5612;SDS011;63463;53.586;9.928;2022-09-17T12:39:49;4.57;;;2.80;;
5612;SDS011;63463;53.586;9.928;2022-09-17T12:45:45;11.27;;;3.43;;
5612;SDS011;63463;53.586;9.928;2022-09-17T12:48:25;5.73;;;2.90;;
5612;SDS011;63463;53.586;9.928;2022-09-17T12:55:28;4.67;;;3.10;;
5612;SDS011;63463;53.586;9.928;2022-09-17T12:58:04;11.23;;;3.13;;
5612;SDS011;63463;53.586;9.928;2022-09-17T13:00:35;4.73;;;2.60;;
5612;SDS011;63463;53.586;9.928;2022-09-17T13:03:18;6.00;;;3.70;;
5612;SDS011;63463;53.586;9.928;2022-09-17T13:11:09;14.73;;;3.40;;
5612;SDS011;63463;53.586;9.928;2022-09-17T13:21:52;9.20;;;3.20;;
5612;SDS011;63463;53.586;9.928;2022-09-17T13:24:20;4.00;;;3.67;;
5612;SDS011;63463;53.586;9.928;2022-09-17T13:26:48;5.20;;;3.07;;
5612;SDS011;63463;53.586;9.928;2022-09-17T13:32:01;5.83;;;2.90;;
5612;SDS011;63463;53.586;9.928;2022-09-17T13:34:28;3.80;;;2.70;;
5612;SDS011;63463;53.586;9.928;2022-09-17T13:36:59;2.87;;;2.60;;
5612;SDS011;63463;53.586;9.928;2022-09-17T13:39:38;8.10;;;3.23;;
5612;SDS011;63463;53.586;9.928;2022-09-17T13:42:06;3.27;;;2.47;;
5612;SDS011;63463;53.586;9.928;2022-09-17T13:45:01;7.80;;;3.77;;
5612;SDS011;63463;53.586;9.928;2022-09-17T13:47:38;4.20;;;3.13;;
5612;SDS011;63463;53.586;9.928;2022-09-17T13:50:06;8.97;;;3.20;;
5612;SDS011;63463;53.586;9.928;2022-09-17T13:52:35;4.90;;;2.80;;
5612;SDS011;63463;53.586;9.928;2022-09-17T13:55:02;3.33;;;3.00;;
5612;SDS011;63463;53.586;9.928;2022-09-17T13:57:28;7.63;;;3.00;;
5612;SDS011;63463;53.586;9.928;2022-09-17T13:59:57;4.10;;;2.97;;
5612;SDS011;63463;53.586;9.928;2022-09-17T14:02:31;3.03;;;2.73;;
5612;SDS011;63463;53.586;9.928;2022-09-17T14:08:09;2.90;;;2.70;;
5612;SDS011;63463;53.586;9.928;2022-09-17T14:10:39;5.33;;;3.17;;
5612;SDS011;63463;53.586;9.928;2022-09-17T14:13:26;6.70;;;2.93;;
5612;SDS011;63463;53.586;9.928;2022-09-17T14:15:53;11.87;;;3.33;;
5612;SDS011;63463;53.586;9.928;2022-09-17T14:21:37;2.53;;;2.43;;
5612;SDS011;63463;53.586;9.928;2022-09-17T14:23:46;3.00;;;2.80;;
5612;SDS011;63463;53.586;9.928;2022-09-17T14:29:10;2.67;;;2.57;;
5612;SDS011;63463;53.586;9.928;2022-09-17T14:31:38;3.67;;;2.57;;
5612;SDS011;63463;53.586;9.928;2022-09-17T14:34:05;2.40;;;2.30;;
5612;SDS011;63463;53.586;9.928;2022-09-17T14:36:36;3.20;;;2.60;;
5612;SDS011;63463;53.586;9.928;2022-09-17T14:39:04;3.40;;;3.07;;
5612;SDS011;63463;53.586;9.928;2022-09-17T14:41:32;5.13;;;2.63;;
5612;SDS011;63463;53.586;9.928;2022-09-17T14:44:03;7.73;;;2.73;;
5612;SDS011;63463;53.586;9.928;2022-09-17T14:46:35;6.83;;;2.70;;
5612;SDS011;63463;53.586;9.928;2022-09-17T14:49:19;2.60;;;2.40;;
5612;SDS011;63463;53.586;9.928;2022-09-17T14:51:47;6.50;;;2.83;;
5612;SDS011;63463;53.586;9.928;2022-09-17T14:54:14;4.10;;;3.80;;
5612;SDS011;63463;53.586;9.928;2022-09-17T14:56:46;5.47;;;3.37;;
5612;SDS011;63463;53.586;9.928;2022-09-17T15:01:48;8.10;;;2.90;;
5612;SDS011;63463;53.586;9.928;2022-09-17T15:06:43;11.10;;;4.30;;
5612;SDS011;63463;53.586;9.928;2022-09-17T15:09:16;5.17;;;3.20;;
5612;SDS011;63463;53.586;9.928;2022-09-17T15:11:42;6.43;;;2.90;;
5612;SDS011;63463;53.586;9.928;2022-09-17T15:14:15;4.37;;;2.87;;
5612;SDS011;63463;53.586;9.928;2022-09-17T15:16:46;6.17;;;2.67;;
5612;SDS011;63463;53.586;9.928;2022-09-17T15:19:21;4.67;;;2.80;;
5612;SDS011;63463;53.586;9.928;2022-09-17T15:21:47;4.10;;;3.33;;
5612;SDS011;63463;53.586;9.928;2022-09-17T15:24:33;7.80;;;3.37;;
5612;SDS011;63463;53.586;9.928;2022-09-17T15:27:05;4.10;;;3.03;;
5612;SDS011;63463;53.586;9.928;2022-09-17T15:29:34;5.03;;;3.37;;
5612;SDS011;63463;53.586;9.928;2022-09-17T15:32:03;3.30;;;3.00;;
5612;SDS011;63463;53.586;9.928;2022-09-17T15:34:30;5.23;;;3.43;;
5612;SDS011;63463;53.586;9.928;2022-09-17T15:37:08;3.50;;;3.20;;
5612;SDS011;63463;53.586;9.928;2022-09-17T15:39:41;4.23;;;3.93;;
5612;SDS011;63463;53.586;9.928;2022-09-17T15:42:16;6.83;;;3.17;;
5612;SDS011;63463;53.586;9.928;2022-09-17T15:44:42;3.77;;;2.50;;
5612;SDS011;63463;53.586;9.928;2022-09-17T15:50:05;7.90;;;3.03;;
5612;SDS011;63463;53.586;9.928;2022-09-17T15:52:34;2.60;;;2.50;;
5612;SDS011;63463;53.586;9.928;2022-09-17T15:55:00;7.70;;;3.30;;
5612;SDS011;63463;53.586;9.928;2022-09-17T15:57:27;4.90;;;3.00;;
5612;SDS011;63463;53.586;9.928;2022-09-17T15:59:54;3.20;;;2.80;;
5612;SDS011;63463;53.586;9.928;2022-09-17T16:02:26;6.00;;;3.17;;
5612;SDS011;63463;53.586;9.928;2022-09-17T16:07:37;4.03;;;3.13;;
5612;SDS011;63463;53.586;9.928;2022-09-17T16:10:04;3.87;;;3.37;;
5612;SDS011;63463;53.586;9.928;2022-09-17T16:12:30;4.43;;;3.17;;
5612;SDS011;63463;53.586;9.928;2022-09-17T16:14:57;4.33;;;2.90;;
5612;SDS011;63463;53.586;9.928;2022-09-17T16:17:29;5.20;;;2.70;;
5612;SDS011;63463;53.586;9.928;2022-09-17T16:20:06;3.43;;;3.13;;
5612;SDS011;63463;53.586;9.928;2022-09-17T16:22:33;6.77;;;3.17;;
5612;SDS011;63463;53.586;9.928;2022-09-17T16:24:59;3.57;;;2.80;;
5612;SDS011;63463;53.586;9.928;2022-09-17T16:27:26;4.20;;;2.97;;
5612;SDS011;63463;53.586;9.928;2022-09-17T16:29:58;3.13;;;2.70;;
5612;SDS011;63463;53.586;9.928;2022-09-17T16:32:26;2.90;;;2.80;;
5612;SDS011;63463;53.586;9.928;2022-09-17T16:34:52;3.60;;;2.77;;
5612;SDS011;63463;53.586;9.928;2022-09-17T16:37:18;3.53;;;3.27;;
5612;SDS011;63463;53.586;9.928;2022-09-17T16:39:44;3.20;;;3.00;;
5612;SDS011;63463;53.586;9.928;2022-09-17T16:42:11;5.57;;;3.30;;
5612;SDS011;63463;53.586;9.928;2022-09-17T16:44:37;7.10;;;3.10;;
5612;SDS011;63463;53.586;9.928;2022-09-17T16:47:03;3.93;;;3.53;;
5612;SDS011;63463;53.586;9.928;2022-09-17T16:49:30;3.70;;;3.30;;
5612;SDS011;63463;53.586;9.928;2022-09-17T16:51:56;7.60;;;4.30;;
5612;SDS011;63463;53.586;9.928;2022-09-17T16:54:22;4.60;;;4.20;;
5612;SDS011;63463;53.586;9.928;2022-09-17T16:56:48;3.60;;;3.40;;
5612;SDS011;63463;53.586;9.928;2022-09-17T16:59:14;3.60;;;3.40;;
5612;SDS011;63463;53.586;9.928;2022-09-17T17:01:40;3.83;;;3.47;;
5612;SDS011;63463;53.586;9.928;2022-09-17T17:04:07;3.90;;;3.40;;
5612;SDS011;63463;53.586;9.928;2022-09-17T17:06:33;3.37;;;3.17;;
5612;SDS011;63463;53.586;9.928;2022-09-17T17:08:59;4.97;;;3.03;;
5612;SDS011;63463;53.586;9.928;2022-09-17T17:11:25;4.20;;;3.67;;
5612;SDS011;63463;53.586;9.928;2022-09-17T17:13:52;3.40;;;3.10;;
5612;SDS011;63463;53.586;9.928;2022-09-17T17:16:20;3.73;;;3.40;;
5612;SDS011;63463;53.586;9.928;2022-09-17T17:18:46;9.50;;;2.90;;
5612;SDS011;63463;53.586;9.928;2022-09-17T17:21:12;3.33;;;3.00;;
5612;SDS011;63463;53.586;9.928;2022-09-17T17:23:38;3.10;;;2.90;;
5612;SDS011;63463;53.586;9.928;2022-09-17T17:26:07;4.77;;;3.67;;
5612;SDS011;63463;53.586;9.928;2022-09-17T17:28:34;6.00;;;3.03;;
5612;SDS011;63463;53.586;9.928;2022-09-17T17:31:00;4.70;;;3.07;;